aviador You're here:

WMKL Decoded Metar

PULAU in MALAYSIA
Report Time2018-05-26 15:00:00
UTC Time2018-05-26 15:38:08
Flight Rules vfr VFR
WindCalm
Visibility9999 m
Phenomena:N/A
Clouds:Few 025 Hf
Scattered 140 Hf
Broken 270 Hf
Expected CloudBase > 800 ft AGL from Temp-Dew spread
Ceiling27,000 ft
Temp28°C (ISA +13)
Dew Point26°C (89% RH)
Heat Index33.6°C
QNH1010 hPa
Density Alt2,064 ft
Elevation23 ft
Report Wrong Elevation
Raw Report
METAR WMKL 261500Z 00000KT 9999 FEW025 SCT140 BKN270 28/26 Q1010=

Extra information for WMKL:More info

Metar Taf Metar & Taf Last 4 Metars F.Rules Stats Wind Profile Meteogram Temp Stats Airport Information Weather charts Add Link Nearby VenuesMetar ALERT Operation Metar Decoded Social comments